KGIF

Winter Haven's Gilbert Airport

Winter Haven, Florida, USA
METAR KGIF 211453Z AUTO 02009KT 10SM CLR 09/02 A3032 RMK AO2 SLP265 T00940017 53017
Observed Flight Rules
Jan-21 @ 14:53 UTC (an hour ago) Visual Flight Rules
Wind Visibility Clouds
20° at 9 knots 10 miles
  • Clear skies
Temperatures Readings
Current 9°C / 48°F
Dewpoint 2°C / 36°F
Humidity 62%
Altimeter 30.32" Hg
Pressure 1026.5 hPa
Elevation 43
METAR KGIF 211453Z AUTO 02009KT 10SM CLR 09/02 A3032 RMK AO2 SLP265 T00940017 53017
Observed Flight Rules
Jan-21 @ 14:53 UTC
(an hour ago)
VFR
Wind Visibility
20° at 9 knots 10 miles
Clouds
  • Clear skies
Temperature Dewpoint
9°C / 48°F 2°C / 36°F
Humidity Altimeter Pressure
62% 30.32" Hg 1026.5 hPa